Skip to main content

NOAA/GLERL Met Station at Chicago, IL

Previous 5 days (top of hour only)
See also Previous 3 Hours (2 minute increments)
Jump down to Data
Switch to [English][Metric]
Zoom: Click and drag, Pan: shift-click and drag, Unzoom: double-click, Unzoom All




Note: Speed = mean wind during 2-minute period at top of hour,
Gust = max wind during 2-minute period at top of hour,
Peak = max wind during entire hour.
• See also 5-day windrose plot


NOAA/GLERL Met Station at Chicago, IL

Previous 5 days (top of hour only)
See also Previous 3 Hours (2 minute increments)
Jump up to Graphs
Switch to [English][Metric]
                  Wind  Wind  Wind   Air   Dew   Rel
                   Spd   Gst   Dir  Temp    Pt   Hum
YYYY-MM-DD   CDT   kts   kts   deg     F     F     %
2021-05-17 00:00 -99.0 -99.0   -99   0.0   0.0   0.0
2021-05-16 16:00  14.2  14.8    85  58.8  50.4  73.3
2021-05-16 15:00  14.4  14.8    86  59.9  49.0  67.0
2021-05-16 14:00  14.4  14.8    85  60.4  48.0  63.1
2021-05-16 13:00  11.1  11.3    90  61.3  45.1  54.8
2021-05-16 12:00   7.4   7.4    91  61.2  45.1  55.1
2021-05-16 11:00   8.9   9.1   126  59.9  49.9  69.3
2021-05-16 10:00   8.2   8.4   131  61.7  49.6  64.1
2021-05-16 09:00   5.6   5.8   131  60.6  48.4  63.7
2021-05-16 08:00   3.9   4.1   173  60.1  48.4  64.9
2021-05-16 07:00   8.6   8.7   190  57.7  48.1  69.9
2021-05-16 06:00   8.6   8.9   174  57.2  48.9  73.6
2021-05-16 05:00   6.0   6.2   176  58.1  48.3  69.6
2021-05-16 04:00   4.5   5.2   162  57.0  50.6  79.0
2021-05-16 03:00   7.6   8.0   168  58.1  49.3  72.1
2021-05-16 02:00   9.1   9.3   176  58.6  48.4  68.5
2021-05-16 01:00   7.4   7.6   174  58.6  48.9  69.8
2021-05-16 00:00   7.6   8.0   170  59.0  48.9  68.8
2021-05-15 23:00   8.4   9.1   175  58.6  50.1  73.0
2021-05-15 22:00   7.0   8.0   169  58.5  50.6  74.9
2021-05-15 21:00   8.6   9.1   141  55.6  53.8  93.6
2021-05-15 20:00   7.6   7.8   123  55.4  53.2  92.3
2021-05-15 19:00   8.7   9.1   138  55.8  52.7  89.3
2021-05-15 18:00  12.4  13.6   143  56.7  52.5  85.9
2021-05-15 17:00  15.4  16.3   172  59.2  49.4  69.6
2021-05-15 16:00  14.8  15.9   142  57.9  51.4  78.5
2021-05-15 15:00  17.9  19.6   189  58.3  49.9  73.5
2021-05-15 14:00  11.1  11.9   169  55.9  52.4  87.8
2021-05-15 13:00  15.4  17.3   186  55.6  50.8  83.7
2021-05-15 12:00  12.6  13.0   198  55.8  49.4  78.9
2021-05-15 11:00  12.4  13.8   226  59.4  45.4  59.6
2021-05-15 10:00   8.6   9.5   207  59.7  43.1  53.7
2021-05-15 09:00  15.2  17.3   253  60.6  37.7  42.2
2021-05-15 08:00  10.1  10.9   184  60.1  43.5  53.9
2021-05-15 07:00   9.7  10.1   179  59.0  40.2  49.4
2021-05-15 06:00   8.7   9.1   190  60.3  38.3  43.8
2021-05-15 05:00   8.6   8.9   182  58.5  37.5  45.3
2021-05-15 04:00  10.3  10.7   181  59.4  38.5  45.5
2021-05-15 03:00   9.9  10.5   181  59.4  40.8  49.9
2021-05-15 02:00   9.5   9.5   182  60.6  36.6  40.4
2021-05-15 01:00   7.4   8.7   186  57.6  49.7  74.7
2021-05-15 00:00   8.4   9.9   163  59.0  45.1  59.5
2021-05-14 23:00   6.8   8.0   172  58.5  43.9  58.0
2021-05-14 22:00   9.5  10.1   175  57.7  45.4  63.0
2021-05-14 21:00   5.2   5.6   190  56.3  48.7  75.5
2021-05-14 20:00  12.1  12.8   100  57.6  41.9  55.6
2021-05-14 19:00  12.2  12.6    93  56.7  44.5  63.4
2021-05-14 18:00  12.2  13.2    92  58.6  41.2  52.0
2021-05-14 17:00  13.0  13.6    98  57.6  43.9  59.9
2021-05-14 16:00  12.4  12.8    91  57.4  44.1  60.8
2021-05-14 15:00  12.2  12.6    83  57.7  40.1  51.4
2021-05-14 14:00  11.3  11.7    97  57.2  43.0  58.7
2021-05-14 13:00  11.9  12.2    92  57.6  40.2  52.0
2021-05-14 12:00   8.6   9.1    91  58.1  38.8  48.2
2021-05-14 11:00   7.4   7.8   111  56.5  48.2  73.4
2021-05-14 10:00   3.3   3.7    63  59.0  39.2  47.4
2021-05-14 09:00   3.1   3.5   319  59.5  38.0  44.4
2021-05-14 08:00   9.5   9.9   289  57.9  33.6  39.5
2021-05-14 07:00  12.4  13.0   278  55.4  34.7  45.2
2021-05-14 06:00  13.2  14.0   275  55.0  34.7  45.9
2021-05-14 05:00   9.1   9.9   271  56.1  37.2  48.7
2021-05-14 04:00  13.4  14.2   259  57.4  34.1  41.1
2021-05-14 03:00  11.7  12.8   194  57.9  34.5  41.0
2021-05-14 02:00  10.5  10.7   194  59.5  25.1  26.3
2021-05-14 01:00  10.9  11.1   208  60.8  24.7  24.7
2021-05-14 00:00  10.5  10.9   206  61.5  25.3  24.7
2021-05-13 23:00   7.4   7.6   199  60.3  26.4  27.1
2021-05-13 22:00   7.4   7.6   189  58.5  38.1  46.3
2021-05-13 21:00   6.6   6.6   189  57.7  40.6  52.5
2021-05-13 20:00   6.6   7.4   156  57.2  38.7  49.7
2021-05-13 19:00   8.6   8.9   134  61.0  32.4  33.7
2021-05-13 18:00  10.3  10.5   128  60.3  33.5  36.2
2021-05-13 17:00  12.2  12.2   119  61.0  30.3  30.9
2021-05-13 16:00  11.7  12.1   129  57.4  39.2  50.3
2021-05-13 15:00  12.8  13.4   119  56.5  37.2  48.0
2021-05-13 14:00  12.6  13.2   126  56.5  37.1  47.9
2021-05-13 13:00  12.4  13.2   124  54.3  37.7  53.0
2021-05-13 12:00  12.4  13.0   123  52.9  39.1  59.0
2021-05-13 11:00  10.1  10.7   122  53.1  37.4  54.9
2021-05-13 10:00   5.8   6.2   106  52.2  37.0  55.8
2021-05-13 09:00   3.7   3.9    12  51.4  26.1  37.0
2021-05-13 07:00   4.9   5.4   287  50.9  27.1  39.3
2021-05-13 06:00   4.5   5.2   157  51.8  41.8  68.3
2021-05-13 05:00   4.7   4.9   274  50.4  32.3  49.6
2021-05-13 04:00   8.4   8.7   285  49.6  32.7  51.7
2021-05-13 03:00   8.7   9.1   284  50.5  36.6  58.5
2021-05-13 02:00   2.3   2.7   267  51.6  36.5  56.0
2021-05-13 01:00   3.9   4.3   199  51.6  36.5  55.9
2021-05-13 00:00   3.5   4.1   183  51.1  34.3  52.2
2021-05-12 23:00   4.5   5.6   153  50.2  32.8  50.9
2021-05-12 22:00   2.7   3.1   114  50.5  29.2  43.4
2021-05-12 21:00   1.0   1.6    52  51.3  31.2  45.8
2021-05-12 20:00   3.1   4.7   101  51.1  33.3  50.3
2021-05-12 19:00   2.3   2.9   117  54.9  37.8  52.2
2021-05-12 18:00   2.3   2.7    85  52.3  36.8  55.1
2021-05-12 17:00   3.3   4.3    69  51.6  34.7  52.0
2021-05-12 16:00   5.2   5.6    72  50.4  36.1  57.7
2021-05-12 15:00   4.9   5.4    89  49.6  36.7  60.8
2021-05-12 14:00   4.5   4.9    73  48.6  35.1  59.3
2021-05-12 13:00   5.8   6.4   103  47.8  36.1  63.5
2021-05-12 12:00   4.9   5.2    66  47.7  36.8  65.6
2021-05-12 11:00   5.1   6.4    73  48.2  37.4  65.9
2021-05-12 10:00   5.6   6.0    46  48.0  35.6  61.8
2021-05-12 09:00   8.0   8.7    24  48.0  37.5  66.5
2021-05-12 08:00   8.7   9.5    33  48.4  36.4  63.0
2021-05-12 07:00   7.8   8.6    16  48.6  39.4  70.2
2021-05-12 06:00   9.1   9.9     0  48.7  37.7  65.4
2021-05-12 05:00   9.3  10.3   346  48.6  37.3  64.8
2021-05-12 04:00   8.4   8.9   334  48.2  37.4  65.8
2021-05-12 03:00   6.4   7.0   346  48.0  37.2  65.9
2021-05-12 02:00   5.2   6.4   360  48.2  34.8  59.4
2021-05-12 01:00   5.2   5.6   350  48.0  33.3  56.3
2021-05-12 00:00   3.5   3.7   355  47.7  32.6  55.6
2021-05-11 23:00   3.9   4.5     3  47.5  34.1  59.3
2021-05-11 22:00   4.5   5.2   346  47.1  32.6  56.6
2021-05-11 21:00   4.9   6.0     1  46.9  33.8  59.8
2021-05-11 20:00   6.0   6.4     3  46.4  32.9  58.9
2021-05-11 19:00   7.6   8.0     2  47.1  33.0  57.6